KPIM/PIM METAR and TAF weather

Enter ICAO airport designator
Station Type Date Time Source
KPIM METAR 2022/06/26 06:55 UTC NOAA

KPIM 260655Z AUTO 00000KT 10SM CLR 22/21 A3011 RMK AO2 T02190205


Station Type Date Time Source
KPIM Decoded METAR 2022/06/26 06:55 UTC NOAA

Station name not available
Jun 26, 2022 - 02:55 AM EDT / 2022.06.26 0655 UTC
Wind: Calm:0
Visibility: 10 mile(s):0
Sky conditions: clear
Temperature: 71.4 F (21.9 C)
Dew Point: 68.9 F (20.5 C)
Relative Humidity: 91%
Pressure (altimeter): 30.11 in. Hg (1019 hPa)
ob: KPIM 260655Z AUTO 00000KT 10SM CLR 22/21 A3011 RMK AO2 T02190205
cycle: 7

Station Type Date Time Source
KPIM TAF UTC NOAA

Error!

Example: see airport list